createdAt,value
2018-09-11T00:02:17.033Z,43.51
2018-09-11T00:04:45.903Z,43.37
2018-09-11T00:07:14.878Z,43.39
2018-09-11T00:09:50.242Z,43.57
2018-09-11T00:12:19.267Z,43.45
2018-09-11T00:14:48.148Z,43.16
2018-09-11T00:17:17.228Z,43.08
2018-09-11T00:19:45.974Z,42.83
2018-09-11T00:22:14.747Z,42.76
2018-09-11T00:24:43.605Z,42.81
2018-09-11T00:27:12.602Z,43.34
2018-09-11T00:29:41.690Z,43.02
2018-09-11T00:32:10.593Z,42.45
2018-09-11T00:34:39.592Z,43.88
2018-09-11T00:37:08.291Z,43.65
2018-09-11T00:39:37.916Z,43.68
2018-09-11T00:42:06.884Z,43.58
2018-09-11T00:44:35.735Z,42.73
2018-09-11T00:47:04.711Z,43.33
2018-09-11T00:49:33.704Z,43.81
2018-09-11T00:52:02.793Z,44.19
2018-09-11T00:54:32.028Z,44.09
2018-09-11T00:57:00.849Z,44.43
2018-09-11T00:59:29.898Z,44.86
2018-09-11T01:01:58.730Z,44.65
2018-09-11T01:04:27.675Z,44.94
2018-09-11T01:06:56.677Z,44.33
2018-09-11T01:09:25.525Z,43.87
2018-09-11T01:11:54.663Z,44.09
2018-09-11T01:14:23.499Z,44.97
2018-09-11T01:19:43.710Z,44.49
2018-09-11T01:22:12.658Z,44.89
2018-09-11T01:24:41.489Z,45.35
2018-09-11T01:27:10.747Z,44.38
2018-09-11T01:29:39.594Z,45.27
2018-09-11T01:32:08.699Z,44.49
2018-09-11T01:34:37.681Z,44.69
2018-09-11T01:37:06.814Z,44.49
2018-09-11T01:39:35.600Z,44.83
2018-09-11T01:42:04.556Z,45.40
2018-09-11T01:44:33.448Z,45.34
2018-09-11T01:47:02.364Z,45.45
2018-09-11T01:49:31.544Z,45.57
2018-09-11T01:52:00.543Z,45.39
2018-09-11T01:54:29.438Z,45.99
2018-09-11T01:56:58.103Z,45.68
2018-09-11T01:59:27.150Z,45.84
2018-09-11T02:01:56.125Z,46.18
2018-09-11T02:04:25.110Z,46.18
2018-09-11T02:06:54.005Z,46.05
2018-09-11T02:09:23.139Z,46.44
2018-09-11T02:11:52.053Z,46.16
2018-09-11T02:14:20.899Z,46.06
2018-09-11T02:16:49.584Z,46.10
2018-09-11T02:19:18.423Z,46.71
2018-09-11T02:21:47.872Z,46.22
2018-09-11T02:24:17.080Z,46.85
2018-09-11T02:26:45.990Z,46.85
2018-09-11T02:29:15.001Z,46.96
2018-09-11T02:31:43.878Z,46.74
2018-09-11T02:34:12.914Z,47.26
2018-09-11T02:36:41.763Z,47.20
2018-09-11T02:39:12.186Z,47.55
2018-09-11T02:41:41.050Z,47.82
2018-09-11T02:44:10.871Z,47.34
2018-09-11T02:46:40.012Z,47.47
2018-09-11T02:49:09.041Z,48.00
2018-09-11T02:51:37.970Z,47.56
2018-09-11T02:54:06.852Z,47.67
2018-09-11T02:56:35.733Z,47.68
2018-09-11T02:59:04.856Z,47.80
2018-09-11T03:01:33.759Z,47.87
2018-09-11T03:04:02.789Z,47.98
2018-09-11T03:06:31.727Z,47.51
2018-09-11T03:09:00.834Z,47.99
2018-09-11T03:11:29.900Z,48.07
2018-09-11T03:13:58.846Z,47.80
2018-09-11T03:16:27.622Z,47.53
2018-09-11T03:18:56.477Z,48.23
2018-09-11T03:21:25.516Z,48.56
2018-09-11T03:23:54.449Z,48.26
2018-09-11T03:26:23.305Z,48.63
2018-09-11T03:28:52.299Z,48.26
2018-09-11T03:31:21.155Z,48.62
2018-09-11T03:33:50.182Z,48.54
2018-09-11T03:36:19.005Z,48.38
2018-09-11T03:38:47.844Z,49.00
2018-09-11T03:41:16.821Z,49.37
2018-09-11T03:43:45.844Z,49.17
2018-09-11T03:46:15.003Z,49.04
2018-09-11T03:48:43.675Z,49.21
2018-09-11T03:51:12.624Z,49.36
2018-09-11T03:53:42.204Z,48.88
2018-09-11T03:56:11.395Z,49.01
2018-09-11T03:58:40.341Z,49.55
2018-09-11T04:01:09.176Z,49.25
2018-09-11T04:03:37.928Z,49.41
2018-09-11T04:06:06.717Z,49.76
2018-09-11T04:08:35.751Z,50.06
2018-09-11T04:11:04.669Z,49.92
2018-09-11T04:13:37.154Z,50.29
2018-09-11T04:16:05.993Z,50.81
2018-09-11T04:18:34.885Z,50.20
2018-09-11T04:21:03.841Z,50.26
2018-09-11T04:23:32.838Z,51.06
2018-09-11T04:26:03.818Z,50.84
2018-09-11T04:28:33.537Z,50.70
2018-09-11T04:31:03.027Z,50.97
2018-09-11T04:33:32.054Z,50.41
2018-09-11T04:36:01.002Z,51.23
2018-09-11T04:38:30.118Z,51.24
2018-09-11T04:40:59.018Z,51.65
2018-09-11T04:43:27.982Z,51.17
2018-09-11T04:45:56.828Z,50.87
2018-09-11T04:48:25.864Z,51.19
2018-09-11T04:50:54.964Z,51.45
2018-09-11T04:53:24.082Z,51.14
2018-09-11T04:55:53.066Z,50.56
2018-09-11T04:58:21.945Z,51.17
2018-09-11T05:00:50.714Z,51.46
2018-09-11T05:03:19.734Z,51.31
2018-09-11T05:05:49.108Z,50.66
2018-09-11T05:08:17.949Z,50.83
2018-09-11T05:10:46.935Z,51.62
2018-09-11T05:13:15.702Z,51.28
2018-09-11T05:15:44.415Z,50.88
2018-09-11T05:18:13.391Z,50.89
2018-09-11T05:20:42.186Z,50.85
2018-09-11T05:23:10.983Z,50.42
2018-09-11T05:25:39.881Z,50.64
2018-09-11T05:28:09.351Z,51.48
2018-09-11T05:30:38.075Z,50.57
2018-09-11T05:33:07.267Z,50.73
2018-09-11T05:35:36.225Z,49.99
2018-09-11T05:38:05.225Z,49.84
2018-09-11T05:40:34.307Z,49.36
2018-09-11T05:43:03.297Z,48.94
2018-09-11T05:45:32.309Z,48.91
2018-09-11T05:48:01.742Z,48.48
2018-09-11T05:50:30.583Z,48.20
2018-09-11T05:52:59.274Z,47.95
2018-09-11T05:55:28.114Z,48.56
2018-09-11T05:57:57.154Z,48.59
2018-09-11T06:00:27.260Z,48.41
2018-09-11T06:02:55.969Z,47.91
2018-09-11T06:05:25.073Z,48.44
2018-09-11T06:07:53.757Z,48.25
2018-09-11T06:10:22.628Z,48.34
2018-09-11T06:12:51.886Z,48.67
2018-09-11T06:15:20.492Z,47.33
2018-09-11T06:17:49.322Z,47.99
2018-09-11T06:20:18.250Z,47.13
2018-09-11T06:22:46.992Z,47.00
2018-09-11T06:25:15.872Z,46.91
2018-09-11T06:27:44.795Z,47.13
2018-09-11T06:30:13.489Z,46.02
2018-09-11T06:32:42.230Z,45.46
2018-09-11T06:35:11.226Z,45.80
2018-09-11T06:37:40.084Z,45.94
2018-09-11T06:40:09.232Z,45.14
2018-09-11T06:42:38.027Z,45.07
2018-09-11T06:45:06.810Z,44.52
2018-09-11T06:47:35.840Z,44.92
2018-09-11T06:50:04.872Z,44.62
2018-09-11T06:52:33.791Z,44.15
2018-09-11T06:55:02.631Z,45.04
2018-09-11T06:57:31.999Z,43.92
2018-09-11T07:00:01.002Z,43.63
2018-09-11T07:02:30.001Z,43.74
2018-09-11T07:04:59.042Z,43.04
2018-09-11T07:07:28.033Z,42.46
2018-09-11T07:09:57.759Z,41.25
2018-09-11T07:12:26.815Z,41.31
2018-09-11T07:14:55.724Z,40.91
2018-09-11T07:17:24.687Z,40.84
2018-09-11T07:19:53.678Z,41.05
2018-09-11T07:22:22.467Z,40.55
2018-09-11T07:24:51.765Z,41.10
2018-09-11T07:27:20.636Z,40.43
2018-09-11T07:29:49.858Z,40.07
2018-09-11T07:32:18.666Z,40.01
2018-09-11T07:34:47.712Z,38.99
2018-09-11T07:37:16.991Z,38.60
2018-09-11T07:39:45.818Z,37.94
2018-09-11T07:42:14.703Z,38.46
2018-09-11T07:44:43.558Z,37.36
2018-09-11T07:47:12.302Z,37.07
2018-09-11T07:49:41.256Z,36.49
2018-09-11T07:52:10.182Z,35.64
2018-09-11T07:54:39.123Z,34.78
2018-09-11T07:57:08.185Z,34.89
2018-09-11T07:59:37.228Z,34.63
2018-09-11T08:02:06.102Z,34.12
2018-09-11T08:04:35.017Z,33.98
2018-09-11T08:07:04.042Z,34.37
2018-09-11T08:09:33.239Z,33.38
2018-09-11T08:12:02.116Z,33.26
2018-09-11T08:14:30.954Z,32.50
2018-09-11T08:16:59.717Z,32.15
2018-09-11T08:19:28.931Z,32.72
2018-09-11T08:21:57.839Z,32.42
2018-09-11T08:24:26.725Z,31.68
2018-09-11T08:26:55.600Z,31.05
2018-09-11T08:29:24.715Z,31.06
2018-09-11T08:31:53.758Z,29.59
2018-09-11T08:34:22.541Z,29.41
2018-09-11T08:36:51.362Z,30.19
2018-09-11T08:39:20.397Z,29.49
2018-09-11T08:41:49.264Z,29.05
2018-09-11T08:44:18.236Z,29.07
2018-09-11T08:46:47.085Z,29.44
2018-09-11T08:49:15.955Z,28.57
2018-09-11T08:51:44.821Z,28.54
2018-09-11T08:54:13.713Z,29.63
2018-09-11T08:56:42.611Z,29.01
2018-09-11T08:59:12.948Z,29.65
2018-09-11T09:01:41.763Z,28.00
2018-09-11T09:04:10.610Z,28.20
2018-09-11T09:06:39.548Z,28.86
2018-09-11T09:09:10.619Z,27.76
2018-09-11T09:11:39.876Z,28.63
2018-09-11T09:14:09.049Z,30.02
2018-09-11T09:16:37.972Z,29.74
2018-09-11T09:19:06.919Z,29.83
2018-09-11T09:21:35.973Z,28.62
2018-09-11T09:24:04.931Z,28.31
2018-09-11T09:26:34.885Z,27.95
2018-09-11T09:29:03.847Z,28.31
2018-09-11T09:31:32.993Z,27.36
2018-09-11T09:34:01.924Z,29.95
2018-09-11T09:36:31.229Z,29.83
2018-09-11T09:39:00.480Z,28.84
2018-09-11T09:41:29.373Z,28.28
2018-09-11T09:43:58.083Z,28.10
2018-09-11T09:46:26.825Z,27.62
2018-09-11T09:48:56.647Z,26.69
2018-09-11T09:51:25.592Z,27.00
2018-09-11T09:53:54.537Z,28.16
2018-09-11T09:56:23.498Z,27.49
2018-09-11T09:58:52.696Z,29.30
2018-09-11T10:01:28.376Z,27.94
2018-09-11T10:03:57.393Z,27.25
2018-09-11T10:06:26.362Z,27.34
2018-09-11T10:08:55.112Z,27.98
2018-09-11T10:11:24.171Z,28.30
2018-09-11T10:13:53.541Z,27.75
2018-09-11T10:16:22.282Z,26.93
2018-09-11T10:18:51.026Z,27.91
2018-09-11T10:21:19.755Z,27.72
2018-09-11T10:23:48.674Z,27.55
2018-09-11T10:26:17.314Z,26.81
2018-09-11T10:28:46.013Z,27.08
2018-09-11T10:31:14.923Z,26.53
2018-09-11T10:33:43.706Z,25.79
2018-09-11T10:36:12.491Z,25.26
2018-09-11T10:38:41.405Z,25.21
2018-09-11T10:41:10.282Z,24.61
2018-09-11T10:43:39.109Z,26.29
2018-09-11T10:46:08.155Z,26.07
2018-09-11T10:48:36.989Z,25.37
2018-09-11T10:51:05.863Z,25.03
2018-09-11T10:53:35.107Z,24.94
2018-09-11T10:56:04.050Z,24.20
2018-09-11T10:58:32.949Z,24.82
2018-09-11T11:01:02.320Z,25.21
2018-09-11T11:03:31.135Z,24.49
2018-09-11T11:06:00.029Z,23.54
2018-09-11T11:08:28.969Z,23.81
2018-09-11T11:10:57.695Z,23.42
2018-09-11T11:13:26.912Z,24.81
2018-09-11T11:15:55.988Z,24.48
2018-09-11T11:18:25.099Z,24.44
2018-09-11T11:20:53.829Z,24.06
2018-09-11T11:23:22.630Z,23.21
2018-09-11T11:25:51.553Z,23.37
2018-09-11T11:28:20.337Z,22.88
2018-09-11T11:30:49.218Z,23.13
2018-09-11T11:33:18.064Z,23.09
2018-09-11T11:35:46.759Z,21.99
2018-09-11T11:38:15.883Z,22.74
2018-09-11T11:40:44.801Z,20.74
2018-09-11T11:43:14.048Z,20.30
2018-09-11T11:45:43.280Z,21.10
2018-09-11T11:48:12.295Z,21.50
2018-09-11T11:50:41.674Z,20.89
2018-09-11T11:53:11.057Z,20.03
2018-09-11T11:55:42.675Z,19.18
2018-09-11T11:58:11.732Z,18.74
2018-09-11T12:00:40.609Z,17.79
2018-09-11T12:03:09.759Z,16.51
2018-09-11T12:05:40.268Z,16.64
2018-09-11T12:08:16.562Z,18.21
2018-09-11T12:10:46.021Z,17.43
2018-09-11T12:13:15.187Z,15.33
2018-09-11T12:15:44.064Z,14.60
2018-09-11T12:18:12.979Z,13.44
2018-09-11T12:20:42.912Z,12.27
2018-09-11T12:23:11.893Z,12.86
2018-09-11T12:25:41.940Z,11.76
2018-09-11T12:28:11.102Z,10.75
2018-09-11T12:30:40.183Z,10.43
2018-09-11T12:33:09.538Z,10.07
2018-09-11T12:35:38.783Z,10.85
2018-09-11T12:38:07.893Z,9.90
2018-09-11T12:40:36.810Z,12.06
2018-09-11T12:43:05.588Z,12.90
2018-09-11T12:45:34.533Z,10.93
2018-09-11T12:48:03.714Z,10.71
2018-09-11T12:50:32.193Z,10.52
2018-09-11T12:53:02.876Z,10.28
2018-09-11T12:55:31.843Z,10.44
2018-09-11T12:58:00.760Z,9.47
2018-09-11T13:00:29.762Z,10.38
2018-09-11T13:02:59.598Z,10.42
2018-09-11T13:05:28.868Z,10.28
2018-09-11T13:07:57.776Z,10.88
2018-09-11T13:10:26.832Z,10.92
2018-09-11T13:12:55.717Z,9.24
2018-09-11T13:15:26.373Z,10.48
2018-09-11T13:17:55.112Z,9.76
2018-09-11T13:20:24.140Z,8.87
2018-09-11T13:22:53.000Z,9.52
2018-09-11T13:25:22.025Z,8.49
2018-09-11T13:27:51.186Z,9.55
2018-09-11T13:30:20.259Z,9.68
2018-09-11T13:32:49.047Z,8.89
2018-09-11T13:35:18.524Z,9.26
2018-09-11T13:37:47.412Z,7.63
2018-09-11T13:40:16.101Z,8.39
2018-09-11T13:42:44.998Z,7.56
2018-09-11T13:45:13.875Z,8.25
2018-09-11T13:47:43.462Z,8.12
2018-09-11T13:50:12.993Z,7.36
2018-09-11T13:52:42.458Z,7.15
2018-09-11T13:55:11.625Z,7.31
2018-09-11T13:57:40.599Z,7.33
2018-09-11T14:00:09.519Z,7.15
2018-09-11T14:02:39.087Z,8.15
2018-09-11T14:05:08.202Z,7.70
2018-09-11T14:07:36.990Z,7.85
2018-09-11T14:10:05.950Z,8.00
2018-09-11T14:12:34.820Z,9.52
2018-09-11T14:15:04.423Z,9.20
2018-09-11T14:17:33.568Z,8.76
2018-09-11T14:20:08.684Z,9.57
2018-09-11T14:22:37.624Z,8.37
2018-09-11T14:25:06.647Z,7.35
2018-09-11T14:27:35.603Z,7.94
2018-09-11T14:30:04.540Z,7.15
2018-09-11T14:32:33.520Z,6.67
2018-09-11T14:35:03.349Z,5.94
2018-09-11T14:37:34.232Z,5.51
2018-09-11T14:40:03.135Z,5.39
2018-09-11T14:42:32.729Z,4.55
2018-09-11T14:45:01.642Z,6.27
2018-09-11T14:47:36.047Z,6.08
2018-09-11T14:50:05.409Z,5.67
2018-09-11T14:52:34.420Z,5.66
2018-09-11T14:55:03.328Z,7.11
2018-09-11T14:57:32.265Z,7.65
2018-09-11T15:00:01.163Z,8.75
2018-09-11T15:02:30.133Z,8.16
2018-09-11T15:04:59.162Z,8.30
2018-09-11T15:07:28.061Z,8.03
2018-09-11T15:09:58.233Z,8.00
2018-09-11T15:12:27.053Z,7.26
2018-09-11T15:14:56.077Z,6.00
2018-09-11T15:17:25.027Z,5.72
2018-09-11T15:19:53.969Z,6.00
2018-09-11T15:22:22.898Z,6.13
2018-09-11T15:24:51.929Z,7.04
2018-09-11T15:27:20.882Z,7.24
2018-09-11T15:29:50.369Z,7.28
2018-09-11T15:32:20.015Z,6.61
2018-09-11T15:34:49.362Z,7.82
2018-09-11T15:37:18.958Z,7.59
2018-09-11T15:39:48.867Z,6.42
2018-09-11T15:42:18.437Z,7.15
2018-09-11T15:44:47.387Z,6.87
2018-09-11T15:47:16.228Z,7.64
2018-09-11T15:49:44.991Z,7.61
2018-09-11T15:52:13.621Z,6.98
2018-09-11T15:54:42.252Z,8.30
2018-09-11T15:57:11.302Z,8.22
2018-09-11T15:59:40.179Z,7.59
2018-09-11T16:02:09.279Z,6.61
2018-09-11T16:04:38.251Z,7.44
2018-09-11T16:07:07.556Z,7.17
2018-09-11T16:09:36.376Z,6.69
2018-09-11T16:12:05.885Z,7.60
2018-09-11T16:14:34.824Z,8.00
2018-09-11T16:17:03.669Z,8.44
2018-09-11T16:19:32.485Z,8.82
2018-09-11T16:22:01.161Z,9.64
2018-09-11T16:24:30.122Z,9.50
2018-09-11T16:26:59.309Z,9.53
2018-09-11T16:29:28.778Z,8.83
2018-09-11T16:31:57.967Z,10.13
2018-09-11T16:34:27.066Z,10.12
2018-09-11T16:36:56.151Z,11.45
2018-09-11T16:39:25.062Z,11.36
2018-09-11T16:41:53.849Z,13.34
2018-09-11T16:44:22.765Z,13.17
2018-09-11T16:46:51.766Z,14.66
2018-09-11T16:49:20.744Z,14.69
2018-09-11T16:51:49.693Z,15.67
2018-09-11T16:54:18.537Z,16.46
2018-09-11T16:56:47.315Z,16.44
2018-09-11T16:59:16.241Z,17.38
2018-09-11T17:01:45.239Z,18.40
2018-09-11T17:04:14.127Z,18.79
2018-09-11T17:06:42.941Z,18.85
2018-09-11T17:09:12.005Z,19.62
2018-09-11T17:11:40.859Z,19.19
2018-09-11T17:14:09.957Z,19.43
2018-09-11T17:16:38.742Z,19.46
2018-09-11T17:19:07.825Z,20.73
2018-09-11T17:21:36.722Z,20.42
2018-09-11T17:24:06.095Z,21.41
2018-09-11T17:26:35.152Z,20.34
2018-09-11T17:29:03.866Z,20.80
2018-09-11T17:31:32.860Z,21.51
2018-09-11T17:34:01.751Z,21.74
2018-09-11T17:36:30.768Z,22.41
2018-09-11T17:38:59.547Z,22.16
2018-09-11T17:41:28.414Z,23.01
2018-09-11T17:43:57.449Z,22.96
2018-09-11T17:46:26.407Z,22.80
2018-09-11T17:48:55.357Z,23.21
2018-09-11T17:51:24.274Z,23.09
2018-09-11T17:53:53.051Z,24.02
2018-09-11T17:56:21.885Z,24.67
2018-09-11T17:58:50.631Z,24.93
2018-09-11T18:01:19.740Z,24.82
2018-09-11T18:03:48.604Z,25.00
2018-09-11T18:06:17.572Z,25.16
2018-09-11T18:08:46.705Z,28.18
2018-09-11T18:11:15.451Z,28.66
2018-09-11T18:13:44.407Z,27.93
2018-09-11T18:16:13.588Z,25.65
2018-09-11T18:18:42.497Z,25.78
2018-09-11T18:21:11.511Z,25.71
2018-09-11T18:23:41.018Z,28.73
2018-09-11T18:26:10.062Z,26.10
2018-09-11T18:28:38.756Z,26.40
2018-09-11T18:31:07.785Z,26.50
2018-09-11T18:33:36.650Z,26.97
2018-09-11T18:36:05.632Z,28.33
2018-09-11T18:38:34.375Z,27.63
2018-09-11T18:41:03.290Z,26.80
2018-09-11T18:43:32.430Z,26.79
2018-09-11T18:46:01.369Z,27.16
2018-09-11T18:48:30.216Z,27.22
2018-09-11T18:50:59.357Z,27.02
2018-09-11T18:53:28.362Z,27.27
2018-09-11T18:55:57.235Z,27.44
2018-09-11T18:58:26.214Z,27.34
2018-09-11T19:00:55.997Z,27.51
2018-09-11T19:03:24.795Z,27.91
2018-09-11T19:05:53.717Z,27.80
2018-09-11T19:08:22.543Z,28.10
2018-09-11T19:10:51.323Z,28.16
2018-09-11T19:13:20.275Z,28.58
2018-09-11T19:15:49.651Z,28.55
2018-09-11T19:18:23.519Z,29.41
2018-09-11T19:20:52.662Z,29.25
2018-09-11T19:23:22.308Z,30.67
2018-09-11T19:25:51.681Z,30.70
2018-09-11T19:28:20.870Z,31.11
2018-09-11T19:30:50.267Z,31.46
2018-09-11T19:33:19.389Z,31.58
2018-09-11T19:35:48.496Z,31.63
2018-09-11T19:38:18.226Z,31.82
2018-09-11T19:40:47.229Z,31.93
2018-09-11T19:43:15.977Z,31.70
2018-09-11T19:45:44.981Z,31.80
2018-09-11T19:48:14.069Z,32.54
2018-09-11T19:50:42.847Z,33.06
2018-09-11T19:53:11.737Z,32.89
2018-09-11T19:55:40.487Z,33.01
2018-09-11T19:58:09.367Z,33.12
2018-09-11T20:00:38.376Z,33.06
2018-09-11T20:03:07.983Z,33.00
2018-09-11T20:05:37.037Z,33.71
2018-09-11T20:08:05.932Z,34.13
2018-09-11T20:10:35.484Z,33.97
2018-09-11T20:13:04.836Z,34.24
2018-09-11T20:15:33.614Z,34.18
2018-09-11T20:18:02.551Z,34.14
2018-09-11T20:20:31.563Z,33.94
2018-09-11T20:23:00.831Z,34.34
2018-09-11T20:25:29.862Z,34.73
2018-09-11T20:27:59.229Z,35.00
2018-09-11T20:30:28.099Z,34.64
2018-09-11T20:32:57.105Z,34.81
2018-09-11T20:35:26.283Z,35.01
2018-09-11T20:37:55.157Z,35.17
2018-09-11T20:40:24.155Z,35.77
2018-09-11T20:42:53.050Z,34.71
2018-09-11T20:45:22.553Z,35.53
2018-09-11T20:47:51.529Z,34.93
2018-09-11T20:50:20.655Z,35.88
2018-09-11T20:52:50.428Z,35.42
2018-09-11T20:55:19.106Z,37.40
2018-09-11T20:57:48.330Z,35.64
2018-09-11T21:00:17.560Z,36.79
2018-09-11T21:02:46.292Z,35.89
2018-09-11T21:05:15.237Z,36.38
2018-09-11T21:07:44.201Z,36.80
2018-09-11T21:10:13.226Z,40.80
2018-09-11T21:12:42.109Z,36.48
2018-09-11T21:15:11.191Z,36.39
2018-09-11T21:17:40.331Z,37.67
2018-09-11T21:20:09.260Z,36.90
2018-09-11T21:22:37.965Z,37.42
2018-09-11T21:25:06.736Z,40.69
2018-09-11T21:27:35.990Z,37.75
2018-09-11T21:30:06.538Z,37.76
2018-09-11T21:32:35.859Z,38.56
2018-09-11T21:35:06.308Z,37.46
2018-09-11T21:37:35.183Z,38.01
2018-09-11T21:40:04.722Z,40.62
2018-09-11T21:42:33.653Z,37.66
2018-09-11T21:45:03.804Z,37.72
2018-09-11T21:47:32.606Z,37.63
2018-09-11T21:50:01.661Z,37.79
2018-09-11T21:52:30.684Z,37.87
2018-09-11T21:54:59.770Z,38.61
2018-09-11T21:57:28.802Z,38.93
2018-09-11T21:59:58.431Z,39.19
2018-09-11T22:02:27.643Z,39.82
2018-09-11T22:04:56.465Z,39.24
2018-09-11T22:07:25.527Z,39.64
2018-09-11T22:09:54.485Z,39.56
2018-09-11T22:12:23.463Z,40.23
2018-09-11T22:14:53.336Z,40.33
2018-09-11T22:17:22.311Z,40.17
2018-09-11T22:19:51.100Z,40.45
2018-09-11T22:22:20.126Z,40.53
2018-09-11T22:24:49.048Z,41.72
2018-09-11T22:27:17.967Z,40.83
2018-09-11T22:29:47.096Z,41.80
2018-09-11T22:32:16.137Z,41.69
2018-09-11T22:34:45.108Z,41.86
2018-09-11T22:37:14.007Z,42.14
2018-09-11T22:39:42.934Z,42.09
2018-09-11T22:42:11.883Z,41.76
2018-09-11T22:44:40.696Z,41.55
2018-09-11T22:47:09.727Z,41.49
2018-09-11T22:49:38.674Z,41.90
2018-09-11T22:52:07.823Z,42.21
2018-09-11T22:54:36.692Z,42.03
2018-09-11T22:57:05.527Z,42.29
2018-09-11T22:59:34.923Z,41.84
2018-09-11T23:02:03.890Z,42.15
2018-09-11T23:04:32.813Z,42.55
2018-09-11T23:07:02.217Z,42.47
2018-09-11T23:09:31.311Z,42.55
2018-09-11T23:12:00.063Z,42.64
2018-09-11T23:14:28.756Z,43.00
2018-09-11T23:16:57.801Z,42.46
2018-09-11T23:19:27.590Z,42.22
2018-09-11T23:22:03.033Z,42.13
2018-09-11T23:24:33.132Z,42.45
2018-09-11T23:27:02.137Z,42.26
2018-09-11T23:29:31.311Z,42.70
2018-09-11T23:32:00.222Z,42.54
2018-09-11T23:34:29.009Z,43.06
2018-09-11T23:36:58.627Z,42.93
2018-09-11T23:39:27.626Z,43.17
2018-09-11T23:41:56.788Z,43.31
2018-09-11T23:44:25.538Z,43.85
2018-09-11T23:46:54.645Z,44.03
2018-09-11T23:49:23.622Z,43.79
2018-09-11T23:51:52.780Z,44.14
2018-09-11T23:54:21.686Z,43.94
2018-09-11T23:56:51.007Z,43.88
2018-09-11T23:59:19.883Z,43.88
